createdAt,value
2017-09-19T00:00:23.313Z,942.3
2017-09-19T00:01:31.400Z,942.2
2017-09-19T00:02:39.546Z,942.2
2017-09-19T00:03:47.577Z,942.2
2017-09-19T00:04:55.667Z,942.2
2017-09-19T00:06:03.753Z,942.2
2017-09-19T00:07:11.845Z,942.2
2017-09-19T00:08:19.988Z,942.2
2017-09-19T00:09:28.095Z,942.2
2017-09-19T00:10:36.110Z,942.2
2017-09-19T00:11:44.194Z,942.2
2017-09-19T00:12:52.401Z,942.2
2017-09-19T00:14:00.429Z,942.3
2017-09-19T00:15:08.489Z,942.3
2017-09-19T00:16:16.551Z,942.3
2017-09-19T00:17:24.644Z,942.3
2017-09-19T00:18:32.726Z,942.3
2017-09-19T00:19:40.877Z,942.3
2017-09-19T00:20:52.047Z,942.3
2017-09-19T00:21:56.995Z,942.2
2017-09-19T00:23:05.129Z,942.3
2017-09-19T00:24:13.171Z,942.3
2017-09-19T00:25:21.314Z,942.3
2017-09-19T00:26:29.352Z,942.3
2017-09-19T00:27:37.486Z,942.3
2017-09-19T00:28:45.662Z,942.3
2017-09-19T00:29:53.640Z,942.3
2017-09-19T00:31:01.771Z,942.3
2017-09-19T00:32:09.803Z,942.3
2017-09-19T00:33:17.890Z,942.2
2017-09-19T00:34:25.978Z,942.2
2017-09-19T00:35:34.241Z,942.2
2017-09-19T00:36:42.311Z,942.2
2017-09-19T00:37:50.307Z,942.2
2017-09-19T00:38:58.333Z,942.3
2017-09-19T00:40:06.446Z,942.2
2017-09-19T00:41:14.521Z,942.3
2017-09-19T00:42:22.660Z,942.2
2017-09-19T00:43:30.692Z,942.3
2017-09-19T00:44:38.900Z,942.3
2017-09-19T00:45:46.958Z,942.3
2017-09-19T00:46:54.958Z,942.3
2017-09-19T00:48:03.102Z,942.2
2017-09-19T00:49:11.192Z,942.2
2017-09-19T00:50:19.314Z,942.2
2017-09-19T00:51:27.310Z,942.2
2017-09-19T00:52:35.399Z,942.2
2017-09-19T00:53:43.542Z,942.2
2017-09-19T00:54:51.572Z,942.2
2017-09-19T00:55:59.660Z,942.1
2017-09-19T00:57:07.747Z,942.1
2017-09-19T00:58:15.835Z,942.1
2017-09-19T00:59:24.071Z,942.1
2017-09-19T01:00:32.262Z,942.1
2017-09-19T01:01:40.101Z,942.1
2017-09-19T01:02:48.189Z,942.1
2017-09-19T01:03:56.276Z,942.0
2017-09-19T01:05:04.420Z,942.0
2017-09-19T01:06:12.454Z,942.0
2017-09-19T01:07:20.542Z,942.0
2017-09-19T01:08:28.788Z,942.0
2017-09-19T01:09:36.732Z,942.0
2017-09-19T01:10:44.870Z,942.0
2017-09-19T01:11:52.894Z,942.0
2017-09-19T01:13:00.980Z,942.0
2017-09-19T01:14:09.169Z,942.0
2017-09-19T01:15:17.158Z,942.0
2017-09-19T01:16:25.303Z,942.0
2017-09-19T01:17:33.335Z,942.0
2017-09-19T01:18:41.428Z,941.9
2017-09-19T01:19:49.516Z,942.0
2017-09-19T01:20:57.608Z,942.0
2017-09-19T01:22:05.859Z,941.9
2017-09-19T01:23:13.785Z,941.9
2017-09-19T01:24:21.867Z,941.9
2017-09-19T01:25:29.955Z,941.9
2017-09-19T01:26:38.042Z,941.9
2017-09-19T01:27:46.189Z,941.9
2017-09-19T01:28:54.219Z,941.9
2017-09-19T01:30:02.304Z,941.9
2017-09-19T01:31:10.394Z,941.9
2017-09-19T01:32:18.537Z,941.9
2017-09-19T01:33:26.689Z,941.9
2017-09-19T01:34:34.657Z,941.9
2017-09-19T01:35:42.746Z,941.9
2017-09-19T01:36:50.834Z,941.9
2017-09-19T01:37:58.938Z,941.9
2017-09-19T01:39:07.081Z,941.9
2017-09-19T01:40:15.113Z,941.9
2017-09-19T01:41:23.297Z,941.9
2017-09-19T01:42:31.291Z,941.9
2017-09-19T01:43:39.380Z,941.9
2017-09-19T01:44:47.533Z,941.9
2017-09-19T01:45:55.554Z,941.9
2017-09-19T01:47:03.645Z,941.9
2017-09-19T01:48:11.784Z,941.9
2017-09-19T01:49:19.817Z,941.9
2017-09-19T01:50:28.097Z,941.9
2017-09-19T01:51:36.108Z,941.9
2017-09-19T01:52:44.080Z,941.9
2017-09-19T01:53:52.169Z,941.9
2017-09-19T01:55:00.566Z,941.9
2017-09-19T01:56:08.402Z,941.9
2017-09-19T01:57:16.430Z,941.9
2017-09-19T01:58:24.518Z,941.9
2017-09-19T01:59:32.604Z,941.9
2017-09-19T02:00:40.694Z,941.9
2017-09-19T02:01:48.840Z,941.9
2017-09-19T02:02:56.870Z,941.9
2017-09-19T02:04:05.252Z,941.9
2017-09-19T02:05:13.045Z,941.9
2017-09-19T02:06:21.132Z,941.9
2017-09-19T02:07:29.277Z,941.9
2017-09-19T02:08:37.306Z,941.9
2017-09-19T02:09:45.393Z,941.9
2017-09-19T02:10:53.483Z,941.9
2017-09-19T02:12:01.570Z,941.9
2017-09-19T02:13:09.715Z,941.9
2017-09-19T02:14:17.749Z,941.9
2017-09-19T02:15:25.838Z,941.9
2017-09-19T02:16:33.922Z,941.9
2017-09-19T02:17:42.009Z,941.9
2017-09-19T02:18:50.200Z,941.9
2017-09-19T02:19:58.307Z,941.9
2017-09-19T02:21:06.274Z,941.9
2017-09-19T02:22:14.365Z,941.9
2017-09-19T02:23:22.448Z,941.9
2017-09-19T02:24:30.593Z,941.9
2017-09-19T02:25:38.636Z,941.9
2017-09-19T02:26:46.724Z,941.9
2017-09-19T02:27:54.837Z,941.9
2017-09-19T02:29:02.902Z,941.9
2017-09-19T02:30:11.047Z,941.9
2017-09-19T02:31:19.074Z,941.9
2017-09-19T02:32:27.190Z,941.9
2017-09-19T02:33:35.248Z,941.9
2017-09-19T02:34:43.335Z,941.9
2017-09-19T02:35:51.546Z,941.9
2017-09-19T02:36:59.540Z,942.0
2017-09-19T02:38:07.597Z,942.0
2017-09-19T02:39:15.700Z,942.0
2017-09-19T02:40:23.786Z,941.9
2017-09-19T02:41:31.940Z,941.9
2017-09-19T02:42:39.979Z,941.9
2017-09-19T02:43:48.070Z,941.9
2017-09-19T02:44:56.159Z,942.0
2017-09-19T02:46:04.244Z,942.0
2017-09-19T02:47:12.387Z,942.0
2017-09-19T02:48:20.420Z,942.0
2017-09-19T02:49:28.508Z,941.9
2017-09-19T02:50:36.596Z,942.0
2017-09-19T02:51:44.812Z,942.0
2017-09-19T02:52:52.827Z,942.0
2017-09-19T02:54:00.857Z,942.0
2017-09-19T02:55:08.944Z,942.0
2017-09-19T02:56:17.031Z,942.0
2017-09-19T02:57:25.130Z,942.0
2017-09-19T02:58:33.272Z,942.0
2017-09-19T02:59:41.466Z,941.9
2017-09-19T03:00:49.390Z,941.9
2017-09-19T03:01:57.478Z,941.9
2017-09-19T03:03:05.566Z,941.9
2017-09-19T03:04:13.881Z,941.9
2017-09-19T03:05:21.739Z,941.9
2017-09-19T03:06:29.835Z,941.9
2017-09-19T03:07:37.980Z,941.9
2017-09-19T03:08:46.196Z,941.8
2017-09-19T03:09:54.156Z,941.9
2017-09-19T03:11:02.185Z,941.9
2017-09-19T03:12:10.272Z,941.9
2017-09-19T03:13:18.392Z,941.9
2017-09-19T03:14:26.479Z,941.9
2017-09-19T03:15:34.622Z,941.9
2017-09-19T03:16:42.656Z,941.9
2017-09-19T03:17:50.846Z,941.9
2017-09-19T03:18:58.829Z,941.8
2017-09-19T03:20:06.917Z,941.9
2017-09-19T03:21:15.125Z,941.9
2017-09-19T03:22:23.090Z,941.8
2017-09-19T03:23:31.235Z,941.8
2017-09-19T03:24:39.264Z,941.8
2017-09-19T03:25:47.354Z,941.8
2017-09-19T03:26:55.496Z,941.8
2017-09-19T03:28:03.526Z,941.8
2017-09-19T03:29:11.614Z,941.8
2017-09-19T03:30:19.701Z,941.8
2017-09-19T03:31:27.911Z,941.9
2017-09-19T03:32:35.996Z,941.8
2017-09-19T03:33:43.963Z,941.8
2017-09-19T03:34:52.048Z,941.9
2017-09-19T03:36:00.150Z,941.8
2017-09-19T03:37:08.221Z,941.8
2017-09-19T03:38:16.371Z,941.8
2017-09-19T03:39:24.453Z,941.9
2017-09-19T03:40:32.500Z,941.8
2017-09-19T03:41:40.572Z,941.9
2017-09-19T03:42:48.658Z,941.8
2017-09-19T03:43:56.868Z,941.8
2017-09-19T03:45:04.833Z,941.8
2017-09-19T03:46:12.968Z,941.8
2017-09-19T03:47:21.025Z,941.9
2017-09-19T03:48:29.102Z,941.8
2017-09-19T03:49:37.247Z,941.8
2017-09-19T03:50:45.429Z,941.8
2017-09-19T03:51:53.362Z,941.9
2017-09-19T03:53:01.449Z,941.8
2017-09-19T03:54:09.536Z,941.9
2017-09-19T03:55:17.831Z,941.9
2017-09-19T03:56:25.710Z,941.8
2017-09-19T03:57:33.801Z,941.8
2017-09-19T03:58:41.977Z,941.8
2017-09-19T03:59:50.039Z,941.8
2017-09-19T04:00:58.179Z,941.8
2017-09-19T04:02:06.149Z,941.8
2017-09-19T04:03:14.231Z,941.8
2017-09-19T04:04:22.734Z,941.8
2017-09-19T04:05:30.425Z,941.8
2017-09-19T04:06:38.630Z,941.8
2017-09-19T04:07:46.600Z,941.9
2017-09-19T04:08:54.713Z,941.9
2017-09-19T04:10:02.776Z,941.8
2017-09-19T04:11:10.917Z,941.8
2017-09-19T04:12:19.005Z,941.9
2017-09-19T04:13:27.161Z,941.8
2017-09-19T04:14:35.124Z,941.8
2017-09-19T04:15:43.208Z,941.8
2017-09-19T04:16:51.295Z,941.8
2017-09-19T04:17:59.503Z,941.9
2017-09-19T04:19:07.468Z,941.8
2017-09-19T04:20:15.649Z,941.8
2017-09-19T04:21:23.644Z,941.8
2017-09-19T04:22:31.780Z,941.8
2017-09-19T04:23:39.938Z,941.8
2017-09-19T04:24:47.904Z,941.8
2017-09-19T04:25:55.990Z,941.8
2017-09-19T04:27:04.139Z,941.8
2017-09-19T04:28:12.163Z,941.8
2017-09-19T04:29:20.308Z,941.8
2017-09-19T04:30:28.336Z,941.8
2017-09-19T04:31:36.468Z,941.8
2017-09-19T04:32:44.511Z,941.8
2017-09-19T04:33:52.641Z,941.8
2017-09-19T04:35:01.672Z,941.7
2017-09-19T04:36:08.866Z,941.8
2017-09-19T04:37:17.081Z,941.7
2017-09-19T04:38:25.077Z,941.8
2017-09-19T04:39:33.164Z,941.7
2017-09-19T04:40:43.340Z,941.8
2017-09-19T04:41:49.442Z,941.7
2017-09-19T04:42:57.480Z,941.7
2017-09-19T04:44:05.929Z,941.7
2017-09-19T04:45:13.596Z,941.8
2017-09-19T04:46:22.175Z,941.7
2017-09-19T04:47:29.775Z,941.7
2017-09-19T04:48:37.864Z,941.7
2017-09-19T04:49:45.948Z,941.8
2017-09-19T04:50:54.040Z,941.8
2017-09-19T04:52:02.241Z,941.8
2017-09-19T04:53:10.218Z,941.8
2017-09-19T04:54:18.297Z,941.8
2017-09-19T04:55:26.381Z,941.8
2017-09-19T04:56:34.469Z,941.8
2017-09-19T04:57:42.613Z,941.9
2017-09-19T04:58:50.697Z,941.8
2017-09-19T04:59:58.727Z,941.8
2017-09-19T05:01:06.814Z,941.9
2017-09-19T05:02:14.901Z,941.9
2017-09-19T05:03:23.107Z,941.9
2017-09-19T05:04:31.365Z,941.9
2017-09-19T05:05:39.159Z,941.8
2017-09-19T05:06:47.244Z,941.8
2017-09-19T05:07:55.333Z,941.9
2017-09-19T05:09:03.476Z,941.8
2017-09-19T05:10:11.507Z,941.9
2017-09-19T05:11:19.595Z,941.9
2017-09-19T05:12:27.683Z,941.9
2017-09-19T05:13:35.866Z,941.9
2017-09-19T05:14:43.908Z,941.9
2017-09-19T05:15:51.938Z,941.9
2017-09-19T05:17:00.029Z,941.9
2017-09-19T05:18:08.197Z,941.9
2017-09-19T05:19:16.197Z,941.9
2017-09-19T05:20:24.340Z,941.8
2017-09-19T05:21:32.371Z,941.8
2017-09-19T05:22:40.458Z,941.8
2017-09-19T05:23:48.543Z,941.9
2017-09-19T05:24:56.631Z,941.9
2017-09-19T05:26:04.773Z,941.9
2017-09-19T05:27:12.805Z,941.9
2017-09-19T05:28:20.890Z,941.9
2017-09-19T05:29:28.977Z,941.9
2017-09-19T05:30:37.118Z,941.9
2017-09-19T05:31:45.267Z,941.9
2017-09-19T05:32:53.233Z,941.8
2017-09-19T05:34:01.319Z,941.9
2017-09-19T05:35:09.407Z,941.9
2017-09-19T05:36:17.680Z,941.8
2017-09-19T05:37:25.637Z,941.9
2017-09-19T05:38:33.667Z,941.9
2017-09-19T05:39:41.754Z,941.9
2017-09-19T05:40:50.017Z,941.9
2017-09-19T05:41:57.928Z,941.9
2017-09-19T05:43:06.162Z,941.9
2017-09-19T05:44:14.099Z,941.9
2017-09-19T05:45:22.378Z,941.9
2017-09-19T05:46:30.328Z,941.9
2017-09-19T05:47:38.358Z,941.9
2017-09-19T05:48:46.503Z,941.9
2017-09-19T05:49:54.533Z,941.9
2017-09-19T05:51:02.688Z,941.9
2017-09-19T05:52:10.705Z,941.9
2017-09-19T05:53:18.792Z,941.9
2017-09-19T05:54:26.998Z,941.9
2017-09-19T05:55:34.964Z,941.9
2017-09-19T05:56:43.061Z,941.9
2017-09-19T05:57:51.138Z,941.9
2017-09-19T05:58:59.228Z,941.9
2017-09-19T06:00:07.536Z,941.9
2017-09-19T06:01:15.407Z,941.9
2017-09-19T06:02:23.540Z,941.9
2017-09-19T06:03:31.571Z,941.9
2017-09-19T06:04:39.683Z,941.9
2017-09-19T06:05:47.825Z,941.9
2017-09-19T06:06:55.856Z,941.9
2017-09-19T06:08:04.136Z,941.9
2017-09-19T06:09:12.579Z,941.9
2017-09-19T06:10:20.667Z,941.8
2017-09-19T06:11:28.875Z,941.8
2017-09-19T06:12:36.841Z,941.8
2017-09-19T06:13:44.926Z,941.8
2017-09-19T06:14:53.022Z,941.8
2017-09-19T06:16:01.107Z,941.8
2017-09-19T06:17:09.248Z,941.8
2017-09-19T06:18:17.340Z,941.8
2017-09-19T06:19:25.367Z,941.8
2017-09-19T06:20:33.453Z,941.8
2017-09-19T06:21:41.540Z,941.8
2017-09-19T06:22:49.686Z,941.9
2017-09-19T06:23:57.713Z,941.9
2017-09-19T06:25:05.805Z,941.8
2017-09-19T06:26:13.885Z,941.8
2017-09-19T06:27:21.971Z,941.9
2017-09-19T06:28:30.114Z,941.9
2017-09-19T06:29:38.237Z,941.9
2017-09-19T06:30:46.231Z,941.8
2017-09-19T06:31:54.317Z,941.9
2017-09-19T06:33:02.403Z,941.8
2017-09-19T06:34:10.612Z,941.9
2017-09-19T06:35:18.580Z,941.9
2017-09-19T06:36:26.682Z,941.9
2017-09-19T06:37:34.752Z,941.9
2017-09-19T06:38:42.837Z,941.8
2017-09-19T06:39:51.027Z,941.9
2017-09-19T06:40:59.015Z,941.9
2017-09-19T06:42:07.102Z,941.9
2017-09-19T06:43:15.274Z,941.9
2017-09-19T06:44:23.281Z,941.9
2017-09-19T06:45:31.420Z,941.9
2017-09-19T06:46:39.451Z,941.9
2017-09-19T06:47:47.539Z,941.9
2017-09-19T06:48:55.635Z,941.9
2017-09-19T06:50:03.848Z,941.9
2017-09-19T06:51:11.864Z,941.9
2017-09-19T06:52:19.895Z,941.9
2017-09-19T06:53:28.004Z,942.0
2017-09-19T06:54:36.067Z,942.0
2017-09-19T06:55:44.154Z,942.0
2017-09-19T06:56:52.298Z,942.0
2017-09-19T06:58:00.330Z,942.0
2017-09-19T06:59:08.428Z,942.0
2017-09-19T07:00:16.516Z,942.0
2017-09-19T07:01:24.613Z,942.0
2017-09-19T07:02:32.756Z,942.0
2017-09-19T07:03:40.786Z,942.0
2017-09-19T07:04:48.871Z,942.0
2017-09-19T07:05:57.011Z,942.0
2017-09-19T07:07:05.064Z,942.0
2017-09-19T07:08:13.253Z,942.0
2017-09-19T07:09:21.218Z,942.0
2017-09-19T07:10:29.305Z,942.0
2017-09-19T07:11:37.393Z,942.0
2017-09-19T07:12:45.477Z,942.0
2017-09-19T07:13:53.631Z,942.0
2017-09-19T07:15:01.661Z,942.0
2017-09-19T07:16:09.847Z,942.0
2017-09-19T07:17:17.836Z,942.0
2017-09-19T07:18:25.922Z,942.1
2017-09-19T07:19:34.070Z,942.0
2017-09-19T07:20:42.198Z,942.0
2017-09-19T07:21:50.252Z,942.0
2017-09-19T07:22:58.282Z,942.0
2017-09-19T07:24:06.368Z,942.1
2017-09-19T07:25:14.578Z,942.0
2017-09-19T07:26:22.549Z,942.1
2017-09-19T07:27:30.640Z,942.1
2017-09-19T07:28:38.729Z,942.1
2017-09-19T07:29:46.821Z,942.1
2017-09-19T07:30:54.970Z,942.1
2017-09-19T07:32:03.000Z,942.1
2017-09-19T07:33:11.085Z,942.1
2017-09-19T07:34:19.210Z,942.1
2017-09-19T07:35:27.256Z,942.1
2017-09-19T07:36:35.464Z,942.1
2017-09-19T07:37:43.487Z,942.1
2017-09-19T07:38:51.516Z,942.1
2017-09-19T07:39:59.603Z,942.1
2017-09-19T07:41:07.690Z,942.1
2017-09-19T07:42:15.834Z,942.1
2017-09-19T07:43:24.033Z,942.1
2017-09-19T07:44:31.953Z,942.1
2017-09-19T07:45:40.040Z,942.1
2017-09-19T07:46:48.127Z,942.1
2017-09-19T07:47:56.492Z,942.1
2017-09-19T07:49:04.300Z,942.1
2017-09-19T07:50:12.386Z,942.2
2017-09-19T07:51:20.471Z,942.1
2017-09-19T07:52:28.733Z,942.1
2017-09-19T07:53:36.702Z,942.1
2017-09-19T07:54:44.733Z,942.1
2017-09-19T07:55:52.820Z,942.1
2017-09-19T07:57:00.908Z,942.2
2017-09-19T07:58:08.994Z,942.2
2017-09-19T07:59:17.142Z,942.2
2017-09-19T08:00:25.172Z,942.2
2017-09-19T08:01:33.258Z,942.2
2017-09-19T08:02:41.372Z,942.2
2017-09-19T08:03:49.438Z,942.2
2017-09-19T08:04:57.637Z,942.2
2017-09-19T08:06:05.795Z,942.2
2017-09-19T08:07:13.690Z,942.2
2017-09-19T08:08:21.791Z,942.2
2017-09-19T08:09:29.985Z,942.3
2017-09-19T08:10:38.198Z,942.3
2017-09-19T08:11:46.213Z,942.3
2017-09-19T08:12:54.121Z,942.3
2017-09-19T08:14:02.215Z,942.3
2017-09-19T08:15:10.298Z,942.3
2017-09-19T08:16:18.505Z,942.3
2017-09-19T08:17:26.471Z,942.3
2017-09-19T08:18:34.561Z,942.3
2017-09-19T08:19:42.838Z,942.3
2017-09-19T08:20:50.877Z,942.3
2017-09-19T08:21:58.877Z,942.3
2017-09-19T08:23:06.930Z,942.3
2017-09-19T08:24:15.026Z,942.3
2017-09-19T08:25:23.265Z,942.3
2017-09-19T08:26:31.200Z,942.3
2017-09-19T08:27:39.413Z,942.3
2017-09-19T08:28:47.372Z,942.3
2017-09-19T08:29:55.496Z,942.3
2017-09-19T08:31:03.541Z,942.3
2017-09-19T08:32:11.629Z,942.3
2017-09-19T08:33:19.771Z,942.3
2017-09-19T08:34:27.939Z,942.3
2017-09-19T08:35:35.887Z,942.3
2017-09-19T08:36:43.975Z,942.3
2017-09-19T08:37:52.063Z,942.4
2017-09-19T08:39:00.202Z,942.3
2017-09-19T08:40:08.232Z,942.3
2017-09-19T08:41:16.439Z,942.3
2017-09-19T08:42:24.412Z,942.3
2017-09-19T08:43:32.490Z,942.3
2017-09-19T08:44:40.697Z,942.3
2017-09-19T08:45:48.664Z,942.3
2017-09-19T08:46:56.769Z,942.3
2017-09-19T08:48:04.936Z,942.3
2017-09-19T08:49:12.925Z,942.3
2017-09-19T08:50:21.070Z,942.3
2017-09-19T08:51:29.102Z,942.3
2017-09-19T08:52:37.312Z,942.3
2017-09-19T08:53:45.270Z,942.3
2017-09-19T08:54:53.355Z,942.3
2017-09-19T08:56:01.499Z,942.3
2017-09-19T08:57:09.685Z,942.3
2017-09-19T08:58:17.616Z,942.3
2017-09-19T08:59:25.702Z,942.3
2017-09-19T09:00:33.788Z,942.3
2017-09-19T09:01:41.930Z,942.3
2017-09-19T09:02:50.039Z,942.3
2017-09-19T09:03:58.057Z,942.2
2017-09-19T09:05:06.133Z,942.2
2017-09-19T09:06:14.362Z,942.2
2017-09-19T09:07:22.573Z,942.2
2017-09-19T09:08:30.393Z,942.2
2017-09-19T09:09:38.478Z,942.2
2017-09-19T09:10:46.569Z,942.2
2017-09-19T09:11:54.717Z,942.2
2017-09-19T09:13:02.794Z,942.2
2017-09-19T09:14:10.823Z,942.2
2017-09-19T09:15:18.910Z,942.2
2017-09-19T09:16:27.057Z,942.2
2017-09-19T09:17:35.086Z,942.2
2017-09-19T09:18:43.224Z,942.2
2017-09-19T09:19:51.253Z,942.1
2017-09-19T09:20:59.522Z,942.1
2017-09-19T09:22:07.430Z,942.1
2017-09-19T09:23:15.514Z,942.1
2017-09-19T09:24:23.719Z,942.1
2017-09-19T09:25:31.757Z,942.1
2017-09-19T09:26:39.772Z,942.1
2017-09-19T09:27:47.857Z,942.1
2017-09-19T09:28:55.999Z,942.0
2017-09-19T09:30:04.219Z,942.1
2017-09-19T09:31:12.145Z,942.1
2017-09-19T09:32:20.228Z,942.0
2017-09-19T09:33:28.332Z,942.0
2017-09-19T09:34:36.401Z,942.0
2017-09-19T09:35:44.607Z,942.0
2017-09-19T09:36:52.588Z,942.0
2017-09-19T09:38:00.673Z,942.0
2017-09-19T09:39:08.902Z,942.0
2017-09-19T09:40:16.844Z,942.0
2017-09-19T09:41:25.050Z,942.0
2017-09-19T09:42:33.018Z,942.0
2017-09-19T09:43:41.170Z,942.0
2017-09-19T09:44:49.263Z,942.0
2017-09-19T09:45:57.293Z,942.0
2017-09-19T09:47:05.437Z,942.0
2017-09-19T09:48:13.467Z,942.0
2017-09-19T09:49:21.563Z,942.0
2017-09-19T09:50:29.644Z,942.0
2017-09-19T09:51:37.725Z,942.0
2017-09-19T09:52:46.077Z,942.0
2017-09-19T09:53:53.905Z,942.0
2017-09-19T09:55:01.983Z,942.0
2017-09-19T09:56:10.069Z,942.0
2017-09-19T09:57:18.304Z,942.0
2017-09-19T09:58:26.298Z,942.0
2017-09-19T09:59:34.329Z,942.0
2017-09-19T10:00:42.538Z,942.0
2017-09-19T10:01:50.502Z,942.0
2017-09-19T10:02:58.774Z,942.0
2017-09-19T10:04:06.731Z,942.0
2017-09-19T10:05:14.760Z,942.0
2017-09-19T10:06:22.882Z,942.0
2017-09-19T10:07:30.932Z,942.0
2017-09-19T10:08:39.022Z,941.9
2017-09-19T10:09:47.162Z,941.9
2017-09-19T10:10:55.191Z,941.9
2017-09-19T10:12:03.277Z,942.0
2017-09-19T10:13:11.365Z,942.0
2017-09-19T10:14:19.451Z,942.0
2017-09-19T10:15:27.693Z,942.0
2017-09-19T10:16:35.741Z,941.9
2017-09-19T10:17:43.712Z,941.9
2017-09-19T10:18:51.794Z,941.9
2017-09-19T10:19:59.879Z,941.9
2017-09-19T10:21:08.032Z,941.9
2017-09-19T10:22:16.053Z,941.9
2017-09-19T10:23:24.140Z,941.9
2017-09-19T10:24:32.225Z,941.9
2017-09-19T10:25:40.415Z,941.9
2017-09-19T10:26:48.451Z,941.9
2017-09-19T10:27:56.481Z,941.9
2017-09-19T10:29:04.577Z,942.0
2017-09-19T10:30:12.664Z,942.1
2017-09-19T10:31:20.750Z,942.1
2017-09-19T10:32:28.897Z,942.1
2017-09-19T10:33:36.929Z,942.1
2017-09-19T10:34:45.104Z,942.1
2017-09-19T10:35:53.106Z,942.1
2017-09-19T10:37:01.187Z,942.1
2017-09-19T10:38:09.330Z,942.1
2017-09-19T10:39:17.547Z,942.1
2017-09-19T10:40:25.446Z,942.1
2017-09-19T10:41:33.530Z,942.1
2017-09-19T10:42:41.618Z,942.1
2017-09-19T10:43:50.010Z,942.1
2017-09-19T10:44:57.932Z,942.2
2017-09-19T10:46:05.876Z,942.1
2017-09-19T10:47:13.961Z,942.2
2017-09-19T10:48:22.343Z,942.2
2017-09-19T10:49:30.190Z,942.1
2017-09-19T10:50:38.220Z,942.2
2017-09-19T10:51:46.305Z,942.2
2017-09-19T10:52:54.391Z,942.2
2017-09-19T10:54:02.478Z,942.2
2017-09-19T10:55:10.684Z,942.2
2017-09-19T10:56:18.651Z,942.2
2017-09-19T10:57:26.735Z,942.2
2017-09-19T10:58:34.827Z,942.2
2017-09-19T10:59:42.913Z,942.2
2017-09-19T11:00:51.059Z,942.2
2017-09-19T11:01:59.084Z,942.2
2017-09-19T11:03:07.198Z,942.2
2017-09-19T11:04:15.381Z,942.2
2017-09-19T11:05:23.342Z,942.2
2017-09-19T11:06:31.505Z,942.2
2017-09-19T11:07:39.516Z,942.2
2017-09-19T11:08:47.603Z,942.2
2017-09-19T11:09:55.688Z,942.2
2017-09-19T11:11:03.775Z,942.2
2017-09-19T11:12:11.981Z,942.2
2017-09-19T11:13:19.946Z,942.2
2017-09-19T11:14:28.033Z,942.2
2017-09-19T11:15:36.196Z,942.2
2017-09-19T11:16:44.281Z,942.2
2017-09-19T11:17:52.425Z,942.3
2017-09-19T11:19:00.454Z,942.2
2017-09-19T11:20:08.661Z,942.2
2017-09-19T11:21:16.686Z,942.2
2017-09-19T11:22:24.712Z,942.2
2017-09-19T11:23:32.853Z,942.2
2017-09-19T11:24:40.886Z,942.2
2017-09-19T11:25:49.038Z,942.2
2017-09-19T11:26:57.074Z,942.2
2017-09-19T11:28:05.153Z,942.2
2017-09-19T11:29:13.302Z,942.2
2017-09-19T11:30:21.322Z,942.2
2017-09-19T11:31:29.420Z,942.3
2017-09-19T11:32:37.495Z,942.3
2017-09-19T11:33:45.597Z,942.3
2017-09-19T11:34:53.722Z,942.3
2017-09-19T11:36:01.876Z,942.3
2017-09-19T11:37:09.841Z,942.3
2017-09-19T11:38:17.925Z,942.4
2017-09-19T11:39:26.010Z,942.3
2017-09-19T11:40:34.157Z,942.4
2017-09-19T11:41:42.185Z,942.4
2017-09-19T11:42:50.267Z,942.3
2017-09-19T11:43:58.354Z,942.3
2017-09-19T11:45:06.441Z,942.3
2017-09-19T11:46:14.583Z,942.3
2017-09-19T11:47:22.612Z,942.3
2017-09-19T11:48:30.698Z,942.4
2017-09-19T11:49:38.792Z,942.4
2017-09-19T11:50:46.874Z,942.3
2017-09-19T11:51:55.017Z,942.3
2017-09-19T11:53:03.225Z,942.3
2017-09-19T11:54:11.134Z,942.3
2017-09-19T11:55:19.221Z,942.2
2017-09-19T11:56:27.302Z,942.2
2017-09-19T11:57:35.527Z,942.3
2017-09-19T11:58:43.473Z,942.3
2017-09-19T11:59:51.561Z,942.3
2017-09-19T12:00:59.647Z,942.2
2017-09-19T12:02:07.734Z,942.2
2017-09-19T12:03:15.952Z,942.2
2017-09-19T12:04:23.904Z,942.2
2017-09-19T12:05:31.990Z,942.2
2017-09-19T12:06:40.076Z,942.2
2017-09-19T12:07:48.217Z,942.2
2017-09-19T12:08:56.304Z,942.2
2017-09-19T12:10:04.339Z,942.2
2017-09-19T12:11:12.424Z,942.2
2017-09-19T12:12:20.511Z,942.1
2017-09-19T12:13:28.599Z,942.1
2017-09-19T12:14:36.745Z,942.1
2017-09-19T12:15:44.950Z,942.1
2017-09-19T12:16:52.862Z,942.1
2017-09-19T12:18:01.003Z,942.1
2017-09-19T12:19:09.034Z,942.0
2017-09-19T12:20:17.342Z,942.1
2017-09-19T12:21:25.206Z,942.1
2017-09-19T12:22:33.292Z,942.1
2017-09-19T12:23:41.433Z,942.1
2017-09-19T12:24:49.461Z,942.0
2017-09-19T12:25:57.603Z,942.0
2017-09-19T12:27:05.633Z,942.0
2017-09-19T12:28:13.719Z,942.1
2017-09-19T12:29:21.817Z,942.0
2017-09-19T12:30:30.013Z,942.0
2017-09-19T12:31:38.032Z,942.0
2017-09-19T12:32:46.062Z,942.0
2017-09-19T12:33:54.148Z,942.1
2017-09-19T12:35:02.233Z,942.1
2017-09-19T12:36:10.318Z,942.1
2017-09-19T12:37:18.461Z,942.1
2017-09-19T12:38:26.492Z,942.1
2017-09-19T12:39:34.788Z,942.1
2017-09-19T12:40:42.855Z,942.1
2017-09-19T12:41:50.747Z,942.1
2017-09-19T12:42:58.893Z,942.1
2017-09-19T12:44:06.917Z,942.1
2017-09-19T12:45:15.005Z,942.1
2017-09-19T12:46:23.091Z,942.1
2017-09-19T12:47:31.178Z,942.1
2017-09-19T12:48:39.547Z,942.1
2017-09-19T12:49:47.359Z,942.1
2017-09-19T12:50:55.443Z,942.1
2017-09-19T12:52:03.527Z,942.1
2017-09-19T12:53:11.762Z,942.1
2017-09-19T12:54:19.757Z,942.0
2017-09-19T12:55:27.909Z,942.0
2017-09-19T12:56:35.883Z,942.0
2017-09-19T12:57:43.958Z,942.1
2017-09-19T12:58:52.052Z,942.1
2017-09-19T13:00:00.252Z,942.1
2017-09-19T13:01:08.214Z,942.0
2017-09-19T13:02:16.480Z,942.0
2017-09-19T13:03:24.389Z,942.0
2017-09-19T13:04:32.473Z,942.0
2017-09-19T13:05:40.620Z,942.1
2017-09-19T13:06:48.833Z,942.1
2017-09-19T13:07:56.732Z,942.1
2017-09-19T13:09:04.885Z,942.0
2017-09-19T13:10:12.902Z,942.1
2017-09-19T13:11:21.112Z,942.0
2017-09-19T13:12:29.133Z,942.0
2017-09-19T13:13:37.159Z,942.1
2017-09-19T13:14:45.245Z,942.0
2017-09-19T13:15:53.330Z,942.0
2017-09-19T13:17:01.500Z,942.0
2017-09-19T13:18:09.503Z,942.0
2017-09-19T13:19:17.590Z,942.0
2017-09-19T13:20:25.674Z,942.0
2017-09-19T13:21:33.922Z,942.0
2017-09-19T13:22:41.965Z,942.0
2017-09-19T13:23:49.935Z,942.0
2017-09-19T13:24:58.018Z,942.0
2017-09-19T13:26:06.108Z,942.0
2017-09-19T13:27:14.308Z,942.1
2017-09-19T13:28:22.332Z,942.1
2017-09-19T13:29:30.363Z,942.1
2017-09-19T13:30:38.487Z,942.1
2017-09-19T13:31:46.534Z,942.1
2017-09-19T13:32:54.618Z,942.1
2017-09-19T13:34:02.759Z,942.1
2017-09-19T13:35:10.787Z,942.2
2017-09-19T13:36:18.875Z,942.2
2017-09-19T13:37:26.962Z,942.2
2017-09-19T13:38:35.048Z,942.2
2017-09-19T13:39:43.345Z,942.2
2017-09-19T13:40:51.216Z,942.3
2017-09-19T13:41:59.302Z,942.3
2017-09-19T13:43:07.525Z,942.3
2017-09-19T13:44:15.548Z,942.3
2017-09-19T13:45:23.627Z,942.3
2017-09-19T13:46:31.658Z,942.4
2017-09-19T13:47:39.740Z,942.3
2017-09-19T13:48:47.825Z,942.3
2017-09-19T13:49:55.908Z,942.3
2017-09-19T13:51:04.052Z,942.4
2017-09-19T13:52:12.082Z,942.4
2017-09-19T13:53:20.348Z,942.5
2017-09-19T13:54:28.254Z,942.5
2017-09-19T13:55:36.339Z,942.5
2017-09-19T13:56:44.546Z,942.5
2017-09-19T13:57:52.511Z,942.5
2017-09-19T13:59:00.651Z,942.5
2017-09-19T14:00:08.749Z,942.5
2017-09-19T14:01:16.768Z,942.4
2017-09-19T14:02:24.910Z,942.4
2017-09-19T14:03:33.057Z,942.4
2017-09-19T14:04:41.025Z,942.4
2017-09-19T14:05:49.111Z,942.4
2017-09-19T14:06:57.204Z,942.4
2017-09-19T14:08:05.406Z,942.4
2017-09-19T14:09:13.366Z,942.4
2017-09-19T14:10:21.453Z,942.4
2017-09-19T14:11:29.538Z,942.4
2017-09-19T14:12:37.736Z,942.4
2017-09-19T14:13:45.766Z,942.4
2017-09-19T14:14:53.917Z,942.4
2017-09-19T14:16:02.056Z,942.4
2017-09-19T14:17:09.968Z,942.4
2017-09-19T14:18:18.052Z,942.4
2017-09-19T14:19:26.194Z,942.4
2017-09-19T14:20:34.221Z,942.4
2017-09-19T14:21:42.417Z,942.4
2017-09-19T14:22:50.402Z,942.4
2017-09-19T14:23:58.496Z,942.4
2017-09-19T14:25:06.722Z,942.4
2017-09-19T14:26:14.775Z,942.4
2017-09-19T14:27:22.756Z,942.4
2017-09-19T14:28:30.840Z,942.4
2017-09-19T14:29:38.927Z,942.4
2017-09-19T14:30:47.237Z,942.4
2017-09-19T14:31:55.096Z,942.4
2017-09-19T14:33:03.181Z,942.4
2017-09-19T14:34:11.267Z,942.4
2017-09-19T14:35:19.351Z,942.5
2017-09-19T14:36:27.562Z,942.4